Time;durP1;ratioP1;P1;durP2;ratioP2;P2;SDS_P1;SDS_P2;PMS_P1;PMS_P2;Temp;Humidity;BMP_temperature;BMP_pressure;BME280_temperature;BME280_humidity;BME280_pressure;Samples;Min_cycle;Max_cycle;Signal;HPM_P1;HPM_P2
2021/08/30 00:01:20;;;;;;;6.13;4.97;;;;;;;;;;5058277;28;20131;-85
2021/08/30 00:03:46;;;;;;;5.90;4.68;;;;;;;;;;5058177;28;20025;-86
2021/08/30 00:06:12;;;;;;;7.30;4.72;;;;;;;;;;5058170;28;20028;-95
2021/08/30 00:08:38;;;;;;;6.90;4.22;;;;;;;;;;5040705;28;20039;-86
2021/08/30 00:11:05;;;;;;;6.55;4.65;;;;;;;;;;5040429;28;20037;-85
2021/08/30 00:13:31;;;;;;;4.38;3.97;;;;;;;;;;5057915;28;20052;-85
2021/08/30 00:15:57;;;;;;;5.40;4.30;;;;;;;;;;5040241;28;20033;-86
2021/08/30 00:18:24;;;;;;;4.50;3.72;;;;;;;;;;5057977;28;20025;-85
2021/08/30 00:20:50;;;;;;;7.32;4.18;;;;;;;;;;5040411;28;20021;-86
2021/08/30 00:23:16;;;;;;;4.95;3.85;;;;;;;;;;5057750;28;20313;-85
2021/08/30 00:25:43;;;;;;;4.57;3.63;;;;;;;;;;5057958;28;20025;-85
2021/08/30 00:28:09;;;;;;;5.25;3.50;;;;;;;;;;5040022;28;20339;-86
2021/08/30 00:30:35;;;;;;;4.00;3.60;;;;;;;;;;5040302;28;20053;-87
2021/08/30 00:33:01;;;;;;;4.10;3.67;;;;;;;;;;5057835;28;20087;-87
2021/08/30 00:35:27;;;;;;;4.28;3.15;;;;;;;;;;5040038;28;20021;-86
2021/08/30 00:37:53;;;;;;;9.95;3.65;;;;;;;;;;5057603;28;20399;-84
2021/08/30 00:40:19;;;;;;;5.65;3.42;;;;;;;;;;5057514;28;20312;-86
2021/08/30 00:42:45;;;;;;;4.40;3.20;;;;;;;;;;5039911;28;20029;-85
2021/08/30 00:45:12;;;;;;;4.97;3.97;;;;;;;;;;5039940;28;20477;-86
2021/08/30 00:47:39;;;;;;;8.60;4.80;;;;;;;;;;5057344;28;20453;-86
2021/08/30 00:50:06;;;;;;;10.85;6.55;;;;;;;;;;5039843;28;20323;-86
2021/08/30 00:52:32;;;;;;;8.90;5.35;;;;;;;;;;5039912;28;20186;-86
2021/08/30 00:54:59;;;;;;;4.30;3.85;;;;;;;;;;5057452;28;20033;-87
2021/08/30 00:57:25;;;;;;;4.75;3.60;;;;;;;;;;5057382;28;20021;-87
2021/08/30 00:59:51;;;;;;;5.20;3.28;;;;;;;;;;5057476;28;20021;-88
2021/08/30 01:02:17;;;;;;;8.43;3.83;;;;;;;;;;5057354;28;20020;-88
2021/08/30 01:04:45;;;;;;;5.97;3.17;;;;;;;;;;5057365;28;20056;-85
2021/08/30 01:07:17;;;;;;;6.45;3.20;;;;;;;;;;5043757;28;20029;-86
2021/08/30 01:09:47;;;;;;;3.08;2.78;;;;;;;;;;5043945;28;20390;-85
2021/08/30 01:12:25;;;;;;;4.05;2.70;;;;;;;;;;5043904;28;20031;-85
2021/08/30 01:14:58;;;;;;;8.38;2.80;;;;;;;;;;5043802;28;20029;-86
2021/08/30 01:17:25;;;;;;;6.47;2.75;;;;;;;;;;5052952;28;20025;-87
2021/08/30 01:20:01;;;;;;;4.07;3.00;;;;;;;;;;5061227;28;20032;-87
2021/08/30 01:22:27;;;;;;;4.88;2.60;;;;;;;;;;5035600;28;20032;-89
2021/08/30 01:24:54;;;;;;;5.45;2.92;;;;;;;;;;5061178;28;20402;-90
2021/08/30 01:27:21;;;;;;;3.13;2.75;;;;;;;;;;5043688;28;20051;-87
2021/08/30 01:30:02;;;;;;;5.93;3.13;;;;;;;;;;5061179;28;20029;-86
2021/08/30 01:32:28;;;;;;;4.25;2.70;;;;;;;;;;5061200;28;20017;-87
2021/08/30 01:34:55;;;;;;;3.35;3.05;;;;;;;;;;5060956;28;20064;-86
2021/08/30 01:37:21;;;;;;;4.75;2.92;;;;;;;;;;5026819;28;20076;-85
2021/08/30 01:39:48;;;;;;;4.30;3.05;;;;;;;;;;5060739;28;20021;-84
2021/08/30 01:42:14;;;;;;;6.65;3.10;;;;;;;;;;5061055;28;20108;-84
2021/08/30 01:44:40;;;;;;;6.00;3.10;;;;;;;;;;5043144;28;20059;-84
2021/08/30 01:47:06;;;;;;;4.28;3.40;;;;;;;;;;5060625;28;20028;-84
2021/08/30 01:49:32;;;;;;;4.80;2.90;;;;;;;;;;5060602;28;20047;-84
2021/08/30 01:51:59;;;;;;;6.47;3.08;;;;;;;;;;5042962;28;20033;-84
2021/08/30 01:54:25;;;;;;;4.60;2.80;;;;;;;;;;5060310;28;20155;-85
2021/08/30 01:56:54;;;;;;;3.97;2.88;;;;;;;;;;5060543;28;20025;-86
2021/08/30 02:02:07;;;;;;;8.55;2.70;;;;;;;;;;5060737;28;20147;-85
2021/08/30 02:04:33;;;;;;;4.65;3.17;;;;;;;;;;5042850;28;20024;-86
2021/08/30 02:06:59;;;;;;;4.75;2.80;;;;;;;;;;5042831;28;20025;-85
2021/08/30 02:09:26;;;;;;;4.57;2.65;;;;;;;;;;5060318;28;20355;-85
2021/08/30 02:11:52;;;;;;;6.25;2.83;;;;;;;;;;5042817;28;20079;-87
2021/08/30 02:14:19;;;;;;;2.83;2.60;;;;;;;;;;5042642;28;20025;-87
2021/08/30 02:16:48;;;;;;;4.95;2.60;;;;;;;;;;5060108;28;20037;-85
2021/08/30 02:19:23;;;;;;;3.60;2.47;;;;;;;;;;5060437;28;20024;-83
2021/08/30 02:21:49;;;;;;;5.00;2.53;;;;;;;;;;5060117;28;20322;-84
2021/08/30 02:24:31;;;;;;;6.53;3.05;;;;;;;;;;5042100;28;20132;-86
2021/08/30 02:26:57;;;;;;;4.18;2.70;;;;;;;;;;5060193;28;20416;-86
2021/08/30 02:29:27;;;;;;;6.05;2.65;;;;;;;;;;5060164;28;20071;-86
2021/08/30 02:31:55;;;;;;;3.97;2.85;;;;;;;;;;5060163;28;20024;-87
2021/08/30 02:34:23;;;;;;;3.53;2.90;;;;;;;;;;5042374;28;20119;-86
2021/08/30 02:36:50;;;;;;;5.07;2.80;;;;;;;;;;5059702;28;20040;-87
2021/08/30 02:39:18;;;;;;;4.75;2.78;;;;;;;;;;5059839;28;20029;-86
2021/08/30 02:41:44;;;;;;;3.45;2.72;;;;;;;;;;5059533;28;20025;-86
2021/08/30 02:44:11;;;;;;;3.05;2.67;;;;;;;;;;5059628;28;20024;-87
2021/08/30 02:46:37;;;;;;;4.25;3.00;;;;;;;;;;5059913;28;20467;-87
2021/08/30 02:49:05;;;;;;;7.75;2.85;;;;;;;;;;5042082;28;20148;-87
2021/08/30 02:51:32;;;;;;;4.53;3.00;;;;;;;;;;5059577;28;20044;-84
2021/08/30 02:53:58;;;;;;;4.18;3.00;;;;;;;;;;5041892;28;20306;-87
2021/08/30 02:56:25;;;;;;;5.50;2.90;;;;;;;;;;5033902;28;20037;-87
2021/08/30 02:58:52;;;;;;;4.53;2.78;;;;;;;;;;5059373;28;20100;-87
2021/08/30 03:01:19;;;;;;;8.80;3.13;;;;;;;;;;5059658;28;20025;-88
2021/08/30 03:03:45;;;;;;;4.38;3.28;;;;;;;;;;5042231;28;20028;-87
2021/08/30 03:06:11;;;;;;;3.30;2.78;;;;;;;;;;5059390;28;20123;-87
2021/08/30 03:08:37;;;;;;;3.00;2.63;;;;;;;;;;5059285;28;20426;-87
2021/08/30 03:11:06;;;;;;;3.80;3.03;;;;;;;;;;5059274;28;20024;-88
2021/08/30 03:13:33;;;;;;;3.72;2.90;;;;;;;;;;5058959;28;20025;-88
2021/08/30 03:15:59;;;;;;;6.20;3.50;;;;;;;;;;5059325;28;20036;-88
2021/08/30 03:18:25;;;;;;;4.22;3.28;;;;;;;;;;5059030;28;20025;-88
2021/08/30 03:20:52;;;;;;;5.13;2.90;;;;;;;;;;5041551;28;20025;-88
2021/08/30 03:23:19;;;;;;;3.80;2.88;;;;;;;;;;5041566;28;20383;-88
2021/08/30 03:25:45;;;;;;;5.05;3.08;;;;;;;;;;5058965;28;20025;-87
2021/08/30 03:28:12;;;;;;;3.75;3.13;;;;;;;;;;5058326;28;20311;-89
2021/08/30 03:30:38;;;;;;;4.35;3.65;;;;;;;;;;5041299;28;20024;-88
2021/08/30 03:33:04;;;;;;;4.55;3.60;;;;;;;;;;5058887;28;20021;-85
2021/08/30 03:35:31;;;;;;;4.70;3.88;;;;;;;;;;5041150;28;20035;-86
2021/08/30 03:37:57;;;;;;;4.53;3.50;;;;;;;;;;5058946;28;20029;-87
2021/08/30 03:40:24;;;;;;;3.90;3.00;;;;;;;;;;5058690;28;20395;-86
2021/08/30 03:42:51;;;;;;;4.60;3.42;;;;;;;;;;5058581;28;20021;-90
2021/08/30 03:45:19;;;;;;;5.93;3.28;;;;;;;;;;5041042;28;20020;-90
2021/08/30 03:47:45;;;;;;;5.15;3.80;;;;;;;;;;5041062;28;20025;-91
2021/08/30 03:50:13;;;;;;;3.78;3.42;;;;;;;;;;5041054;28;20060;-86
2021/08/30 03:52:40;;;;;;;4.38;3.58;;;;;;;;;;5040720;28;20048;-86
2021/08/30 03:55:11;;;;;;;5.63;3.90;;;;;;;;;;5058335;28;20074;-85
2021/08/30 03:57:37;;;;;;;10.60;3.88;;;;;;;;;;5040142;28;20386;-85
2021/08/30 04:00:05;;;;;;;5.35;4.13;;;;;;;;;;5040775;28;20415;-85
2021/08/30 04:02:31;;;;;;;4.03;3.63;;;;;;;;;;5058427;28;20025;-87
2021/08/30 04:04:57;;;;;;;6.50;3.83;;;;;;;;;;5040653;28;20025;-88
2021/08/30 04:07:24;;;;;;;4.47;3.95;;;;;;;;;;5058218;28;20040;-88
2021/08/30 04:09:50;;;;;;;5.22;4.20;;;;;;;;;;5040491;28;20031;-88
2021/08/30 04:12:17;;;;;;;8.63;4.78;;;;;;;;;;5040317;28;20029;-84
2021/08/30 04:14:44;;;;;;;7.57;4.63;;;;;;;;;;5057652;28;20407;-85
2021/08/30 04:17:10;;;;;;;8.73;4.78;;;;;;;;;;5057517;28;20040;-84
2021/08/30 04:19:36;;;;;;;6.82;4.93;;;;;;;;;;5039622;28;20036;-84
2021/08/30 04:22:03;;;;;;;6.03;5.07;;;;;;;;;;5040008;28;20025;-84
2021/08/30 04:24:29;;;;;;;6.90;4.70;;;;;;;;;;5057618;28;20339;-84
2021/08/30 04:26:55;;;;;;;7.75;4.82;;;;;;;;;;5057500;28;20021;-84
2021/08/30 04:29:21;;;;;;;5.45;4.80;;;;;;;;;;5057713;28;20032;-84
2021/08/30 04:31:47;;;;;;;8.10;5.57;;;;;;;;;;5040016;28;20021;-86
2021/08/30 04:34:20;;;;;;;5.95;5.25;;;;;;;;;;5057277;28;20062;-86
2021/08/30 04:36:46;;;;;;;5.30;4.68;;;;;;;;;;5057531;28;20056;-85
2021/08/30 04:39:12;;;;;;;7.68;5.60;;;;;;;;;;5039384;28;20025;-86
2021/08/30 04:41:38;;;;;;;7.70;5.53;;;;;;;;;;5056579;28;20025;-86
2021/08/30 04:44:04;;;;;;;6.13;4.93;;;;;;;;;;5057712;28;20052;-85
2021/08/30 04:46:31;;;;;;;6.97;4.85;;;;;;;;;;5057509;28;20051;-86
2021/08/30 04:48:57;;;;;;;9.23;5.43;;;;;;;;;;5039849;28;20033;-86
2021/08/30 04:51:23;;;;;;;10.07;6.18;;;;;;;;;;5057369;28;20036;-83
2021/08/30 04:53:49;;;;;;;8.25;5.30;;;;;;;;;;5057188;28;20052;-84
2021/08/30 04:56:15;;;;;;;5.75;5.15;;;;;;;;;;5038937;28;20032;-86
2021/08/30 04:58:41;;;;;;;8.90;5.38;;;;;;;;;;5057242;28;20411;-86
2021/08/30 05:01:07;;;;;;;6.00;5.40;;;;;;;;;;5057347;28;20066;-84
2021/08/30 05:03:33;;;;;;;9.18;5.70;;;;;;;;;;5057272;28;20025;-84
2021/08/30 05:05:59;;;;;;;8.10;5.47;;;;;;;;;;5057286;28;20033;-86
2021/08/30 05:08:25;;;;;;;8.10;5.97;;;;;;;;;;5057285;28;20021;-86
2021/08/30 05:10:51;;;;;;;12.93;5.55;;;;;;;;;;5039697;28;20032;-85
2021/08/30 05:13:18;;;;;;;8.38;5.18;;;;;;;;;;5056787;28;20051;-88
2021/08/30 05:15:44;;;;;;;7.90;4.88;;;;;;;;;;5038980;28;20423;-84
2021/08/30 05:18:10;;;;;;;6.60;5.05;;;;;;;;;;5056859;28;20441;-87
2021/08/30 05:20:36;;;;;;;7.00;4.70;;;;;;;;;;5056945;28;20411;-87
2021/08/30 05:23:02;;;;;;;6.05;5.10;;;;;;;;;;5057122;28;20057;-88
2021/08/30 05:25:28;;;;;;;6.45;5.10;;;;;;;;;;5039721;28;20353;-86
2021/08/30 05:27:54;;;;;;;5.47;4.35;;;;;;;;;;5039246;28;20033;-86
2021/08/30 05:30:21;;;;;;;7.15;5.05;;;;;;;;;;5039702;28;20127;-87
2021/08/30 05:32:47;;;;;;;6.32;4.47;;;;;;;;;;5057224;28;20086;-86
2021/08/30 05:35:13;;;;;;;7.30;4.75;;;;;;;;;;5057018;28;20403;-87
2021/08/30 05:37:40;;;;;;;7.85;5.00;;;;;;;;;;5039435;28;20043;-86
2021/08/30 05:40:06;;;;;;;7.63;4.25;;;;;;;;;;5039655;28;20035;-87
2021/08/30 05:42:32;;;;;;;8.68;4.45;;;;;;;;;;5039511;28;20024;-86
2021/08/30 05:44:58;;;;;;;5.63;4.82;;;;;;;;;;5056877;28;20013;-87
2021/08/30 05:47:24;;;;;;;6.45;4.75;;;;;;;;;;5039099;28;20064;-86
2021/08/30 05:49:50;;;;;;;5.65;4.65;;;;;;;;;;5039624;28;20036;-86
2021/08/30 05:52:17;;;;;;;8.65;4.72;;;;;;;;;;5040963;28;20108;-86
2021/08/30 05:54:43;;;;;;;5.32;4.40;;;;;;;;;;5060777;28;20108;-86
2021/08/30 05:57:09;;;;;;;8.68;4.50;;;;;;;;;;5060579;28;20029;-86
2021/08/30 05:59:36;;;;;;;8.15;4.05;;;;;;;;;;5042535;28;20040;-87
2021/08/30 06:02:03;;;;;;;6.55;4.85;;;;;;;;;;5042610;28;20033;-86
2021/08/30 06:04:29;;;;;;;5.45;4.28;;;;;;;;;;5042772;28;20029;-86
2021/08/30 06:06:55;;;;;;;7.07;3.92;;;;;;;;;;5042629;28;20060;-87
2021/08/30 06:09:21;;;;;;;5.35;4.65;;;;;;;;;;5060442;28;20021;-87
2021/08/30 06:11:48;;;;;;;7.65;4.40;;;;;;;;;;5060143;28;20028;-86
2021/08/30 06:14:14;;;;;;;5.00;4.50;;;;;;;;;;5060173;28;20025;-86
2021/08/30 06:16:40;;;;;;;6.30;3.90;;;;;;;;;;5059902;28;20052;-86
2021/08/30 06:19:07;;;;;;;5.13;4.50;;;;;;;;;;5042149;28;20074;-86
2021/08/30 06:21:33;;;;;;;5.63;4.20;;;;;;;;;;5060289;28;20047;-86
2021/08/30 06:23:59;;;;;;;9.45;3.97;;;;;;;;;;5059850;28;20052;-86
2021/08/30 06:26:25;;;;;;;6.35;4.25;;;;;;;;;;5060071;28;20029;-86
2021/08/30 06:28:51;;;;;;;4.55;4.05;;;;;;;;;;5042357;28;20024;-86
2021/08/30 06:31:18;;;;;;;5.22;4.10;;;;;;;;;;5059689;28;20021;-86
2021/08/30 06:33:44;;;;;;;5.07;3.85;;;;;;;;;;5059753;28;20057;-86
2021/08/30 06:36:10;;;;;;;5.35;4.38;;;;;;;;;;5059753;28;20407;-86
2021/08/30 06:38:36;;;;;;;6.03;4.45;;;;;;;;;;5060003;28;20025;-85
2021/08/30 06:41:02;;;;;;;5.47;4.30;;;;;;;;;;5042172;28;20052;-86
2021/08/30 06:43:28;;;;;;;9.70;4.32;;;;;;;;;;5059703;28;20025;-85
2021/08/30 06:45:54;;;;;;;6.20;4.22;;;;;;;;;;5059874;28;20022;-87
2021/08/30 06:48:20;;;;;;;5.07;4.10;;;;;;;;;;5041683;28;20126;-87
2021/08/30 06:50:46;;;;;;;8.05;4.38;;;;;;;;;;5059624;28;20028;-86
2021/08/30 06:53:14;;;;;;;7.45;4.15;;;;;;;;;;5059833;28;20072;-87
2021/08/30 06:55:40;;;;;;;5.57;3.83;;;;;;;;;;5041917;28;20498;-86
2021/08/30 06:58:06;;;;;;;10.68;4.80;;;;;;;;;;5059378;28;20029;-86
2021/08/30 07:00:32;;;;;;;4.70;4.20;;;;;;;;;;5059593;28;20391;-86
2021/08/30 07:02:58;;;;;;;7.45;4.05;;;;;;;;;;5058489;28;20017;-86
2021/08/30 07:05:24;;;;;;;5.72;4.32;;;;;;;;;;5059005;28;20029;-86
2021/08/30 07:07:50;;;;;;;8.75;4.43;;;;;;;;;;5041249;28;20124;-86
2021/08/30 07:10:16;;;;;;;6.65;4.35;;;;;;;;;;5059369;28;20025;-86
2021/08/30 07:12:42;;;;;;;6.20;4.30;;;;;;;;;;5059077;28;20067;-84
2021/08/30 07:15:09;;;;;;;4.30;3.90;;;;;;;;;;5059040;28;20305;-84
2021/08/30 07:17:35;;;;;;;7.40;4.10;;;;;;;;;;5059171;28;20306;-85
2021/08/30 07:20:01;;;;;;;4.75;3.95;;;;;;;;;;5041024;28;20028;-84
2021/08/30 07:22:27;;;;;;;6.18;3.90;;;;;;;;;;5058776;28;20024;-85
2021/08/30 07:24:53;;;;;;;7.45;3.65;;;;;;;;;;5041150;28;20044;-85
2021/08/30 07:27:19;;;;;;;10.23;3.90;;;;;;;;;;5041319;28;20318;-85
2021/08/30 07:29:45;;;;;;;4.30;3.90;;;;;;;;;;5040697;28;20033;-85
2021/08/30 07:32:11;;;;;;;7.97;3.92;;;;;;;;;;5058620;28;20025;-85
2021/08/30 07:34:37;;;;;;;4.38;3.55;;;;;;;;;;5058788;28;20036;-84
2021/08/30 07:37:04;;;;;;;12.93;3.75;;;;;;;;;;5058749;28;20071;-85
2021/08/30 07:39:30;;;;;;;4.82;3.50;;;;;;;;;;5040692;28;20063;-85
2021/08/30 07:41:56;;;;;;;4.75;3.30;;;;;;;;;;5058198;28;20028;-85
2021/08/30 07:44:24;;;;;;;3.65;3.20;;;;;;;;;;5058368;28;20017;-85
2021/08/30 07:46:50;;;;;;;5.57;3.60;;;;;;;;;;5040443;28;20036;-85
2021/08/30 07:49:16;;;;;;;3.50;2.90;;;;;;;;;;5058406;28;20025;-85
2021/08/30 07:51:43;;;;;;;6.25;3.85;;;;;;;;;;5057821;28;20033;-84
2021/08/30 07:54:09;;;;;;;5.68;3.45;;;;;;;;;;5057841;28;20040;-85
2021/08/30 07:56:40;;;;;;;5.32;3.60;;;;;;;;;;5058136;28;20036;-85
2021/08/30 07:59:07;;;;;;;5.55;3.40;;;;;;;;;;5058252;28;20431;-85
2021/08/30 08:01:33;;;;;;;6.72;3.22;;;;;;;;;;5040425;28;20025;-85
2021/08/30 08:03:59;;;;;;;3.20;2.90;;;;;;;;;;5058210;28;20071;-85
2021/08/30 08:06:25;;;;;;;7.18;3.30;;;;;;;;;;5058268;28;20051;-85
2021/08/30 08:08:51;;;;;;;3.03;2.72;;;;;;;;;;5058040;28;20025;-84
2021/08/30 08:11:18;;;;;;;4.57;3.20;;;;;;;;;;5039862;28;20461;-84
2021/08/30 08:13:44;;;;;;;7.57;3.33;;;;;;;;;;5040279;28;20292;-84
2021/08/30 08:16:10;;;;;;;4.15;3.75;;;;;;;;;;5057689;28;20036;-84
2021/08/30 08:18:36;;;;;;;5.97;4.55;;;;;;;;;;5058003;28;20108;-85
2021/08/30 08:21:04;;;;;;;3.50;3.20;;;;;;;;;;5057899;28;20017;-84
2021/08/30 08:23:30;;;;;;;4.05;2.90;;;;;;;;;;5057637;28;20099;-84
2021/08/30 08:25:56;;;;;;;4.28;3.03;;;;;;;;;;5039840;28;20033;-85
2021/08/30 08:28:22;;;;;;;6.20;3.67;;;;;;;;;;5057759;28;20104;-84
2021/08/30 08:30:49;;;;;;;4.72;3.92;;;;;;;;;;5057669;28;20323;-85
2021/08/30 08:33:15;;;;;;;3.90;3.40;;;;;;;;;;5039596;28;20035;-85
2021/08/30 08:35:42;;;;;;;5.50;3.53;;;;;;;;;;5039515;28;20036;-84
2021/08/30 08:38:08;;;;;;;5.47;3.42;;;;;;;;;;5057598;28;20304;-85
2021/08/30 08:40:35;;;;;;;4.05;3.28;;;;;;;;;;5057116;28;20021;-85
2021/08/30 08:43:01;;;;;;;4.30;3.50;;;;;;;;;;5057444;28;20434;-85
2021/08/30 08:45:28;;;;;;;3.10;2.78;;;;;;;;;;5039730;28;20025;-85
2021/08/30 08:47:54;;;;;;;3.35;3.05;;;;;;;;;;5057018;28;20398;-81
2021/08/30 08:50:22;;;;;;;6.80;4.20;;;;;;;;;;5057028;28;20029;-78
2021/08/30 08:52:49;;;;;;;9.55;6.03;;;;;;;;;;5057156;28;20071;-78
2021/08/30 08:55:16;;;;;;;3.83;2.92;;;;;;;;;;5039186;28;20021;-78
2021/08/30 08:57:43;;;;;;;4.07;3.00;;;;;;;;;;5038557;28;20040;-78
2021/08/30 09:00:13;;;;;;;7.40;3.70;;;;;;;;;;5056748;28;20052;-77
2021/08/30 09:02:39;;;;;;;6.13;4.70;;;;;;;;;;5056731;28;20076;-78
2021/08/30 09:05:07;;;;;;;4.80;3.75;;;;;;;;;;5056650;28;20028;-78
2021/08/30 09:07:39;;;;;;;3.10;2.80;;;;;;;;;;5039223;28;20024;-78
2021/08/30 09:10:08;;;;;;;3.08;2.53;;;;;;;;;;5038932;28;20041;-78
2021/08/30 09:12:34;;;;;;;3.42;2.72;;;;;;;;;;5056707;28;20433;-77
2021/08/30 09:15:10;;;;;;;4.68;3.05;;;;;;;;;;5056826;28;20108;-77
2021/08/30 09:17:36;;;;;;;37.70;17.85;;;;;;;;;;5056390;28;20036;-77
2021/08/30 09:20:03;;;;;;;4.85;2.67;;;;;;;;;;5056822;28;20314;-77
2021/08/30 09:22:30;;;;;;;3.92;2.25;;;;;;;;;;5056102;28;20056;-77
2021/08/30 09:25:06;;;;;;;29.30;13.93;;;;;;;;;;5038861;28;20473;-77
2021/08/30 09:27:36;;;;;;;3.00;2.25;;;;;;;;;;5059128;28;20437;-77
2021/08/30 09:30:04;;;;;;;4.20;2.78;;;;;;;;;;5042382;28;20040;-77
2021/08/30 09:32:33;;;;;;;6.05;5.07;;;;;;;;;;5060339;28;20017;-77
2021/08/30 09:35:01;;;;;;;18.67;12.48;;;;;;;;;;5060472;28;20037;-77
2021/08/30 09:37:27;;;;;;;11.27;6.60;;;;;;;;;;5046317;28;20036;-77
2021/08/30 09:40:00;;;;;;;4.95;2.40;;;;;;;;;;5060327;28;20025;-77
2021/08/30 09:42:27;;;;;;;4.63;2.00;;;;;;;;;;5060311;28;20021;-77
2021/08/30 09:44:55;;;;;;;2.15;1.95;;;;;;;;;;5061911;28;20025;-77
2021/08/30 09:47:21;;;;;;;7.22;2.17;;;;;;;;;;5080227;28;20031;-77
2021/08/30 09:49:52;;;;;;;2.05;1.90;;;;;;;;;;5062360;28;20033;-77
2021/08/30 09:52:21;;;;;;;3.92;2.60;;;;;;;;;;5062541;28;20027;-77
2021/08/30 09:54:48;;;;;;;3.03;1.75;;;;;;;;;;5061789;28;20044;-77
2021/08/30 09:57:14;;;;;;;3.25;1.80;;;;;;;;;;5062161;28;20025;-77
2021/08/30 09:59:43;;;;;;;3.90;1.80;;;;;;;;;;5080309;28;20322;-77
2021/08/30 10:02:10;;;;;;;2.00;1.80;;;;;;;;;;5079905;28;20020;-78
2021/08/30 10:04:37;;;;;;;3.33;1.92;;;;;;;;;;5061889;28;20032;-76
2021/08/30 10:07:04;;;;;;;1.92;1.83;;;;;;;;;;5062189;28;20138;-76
2021/08/30 10:09:30;;;;;;;4.50;1.60;;;;;;;;;;5079514;28;20033;-77
2021/08/30 10:11:56;;;;;;;2.67;1.88;;;;;;;;;;5061465;28;20043;-81
2021/08/30 10:14:23;;;;;;;6.47;2.20;;;;;;;;;;5061701;28;20127;-80
2021/08/30 10:16:50;;;;;;;2.97;2.00;;;;;;;;;;5079845;28;20116;-81
2021/08/30 10:19:35;;;;;;;14.32;2.60;;;;;;;;;;5079859;28;20078;-80
2021/08/30 10:22:14;;;;;;;5.43;2.10;;;;;;;;;;5079592;28;20032;-81
2021/08/30 10:24:41;;;;;;;4.95;1.60;;;;;;;;;;5061393;28;20090;-80
2021/08/30 10:27:10;;;;;;;6.13;1.95;;;;;;;;;;5079833;28;20051;-80
2021/08/30 10:29:38;;;;;;;290.02;23.90;;;;;;;;;;5079362;28;20031;-81
2021/08/30 10:32:04;;;;;;;5.78;2.03;;;;;;;;;;5079553;28;20433;-79
2021/08/30 10:34:30;;;;;;;2.17;1.88;;;;;;;;;;5079484;28;20024;-79
2021/08/30 10:36:57;;;;;;;1.70;1.60;;;;;;;;;;5079399;28;20055;-79
2021/08/30 10:39:24;;;;;;;14.68;11.35;;;;;;;;;;5078133;28;20318;-80
2021/08/30 10:41:50;;;;;;;7.28;6.47;;;;;;;;;;5061545;28;20021;-79
2021/08/30 10:44:21;;;;;;;13.88;9.70;;;;;;;;;;5060958;28;20051;-79
2021/08/30 10:46:53;;;;;;;3.60;1.88;;;;;;;;;;5079236;28;20047;-79
2021/08/30 10:49:30;;;;;;;5.53;4.18;;;;;;;;;;5078979;28;20031;-79
2021/08/30 10:52:11;;;;;;;5.63;3.45;;;;;;;;;;5079170;28;20412;-79
2021/08/30 10:54:37;;;;;;;3.43;2.97;;;;;;;;;;5079208;28;20033;-80
2021/08/30 10:57:03;;;;;;;11.40;7.05;;;;;;;;;;5078977;28;20021;-79
2021/08/30 10:59:30;;;;;;;4.18;2.50;;;;;;;;;;5061248;28;20028;-80
2021/08/30 11:01:59;;;;;;;2.20;1.45;;;;;;;;;;5078815;28;20389;-79
2021/08/30 11:04:43;;;;;;;1.70;1.45;;;;;;;;;;5061023;28;20020;-80
2021/08/30 11:07:09;;;;;;;4.00;2.08;;;;;;;;;;5078773;28;20034;-80
2021/08/30 11:09:36;;;;;;;2.72;1.60;;;;;;;;;;5060447;28;20033;-78
2021/08/30 11:12:09;;;;;;;3.47;1.70;;;;;;;;;;5078877;28;20024;-78
2021/08/30 11:14:35;;;;;;;4.68;1.52;;;;;;;;;;5078955;28;20032;-85
2021/08/30 11:17:02;;;;;;;66.07;5.47;;;;;;;;;;5078595;28;20024;-78
2021/08/30 11:19:28;;;;;;;44.10;7.00;;;;;;;;;;5078869;28;20040;-79
2021/08/30 11:21:58;;;;;;;4.68;1.85;;;;;;;;;;5060835;28;20440;-80
2021/08/30 11:24:24;;;;;;;31.67;3.30;;;;;;;;;;5060707;28;20045;-80
2021/08/30 11:26:50;;;;;;;77.38;7.47;;;;;;;;;;5078460;28;20028;-79
2021/08/30 11:29:16;;;;;;;7.22;1.58;;;;;;;;;;5078302;28;20031;-80
2021/08/30 11:31:42;;;;;;;5.35;1.70;;;;;;;;;;5078102;28;20032;-79
2021/08/30 11:34:10;;;;;;;9.85;1.52;;;;;;;;;;5078367;28;20039;-79
2021/08/30 11:36:44;;;;;;;1.55;1.33;;;;;;;;;;5077954;28;20035;-79
2021/08/30 11:39:14;;;;;;;15.90;9.50;;;;;;;;;;5078153;28;20454;-79
2021/08/30 11:41:40;;;;;;;5.35;3.95;;;;;;;;;;5078011;28;20032;-80
2021/08/30 11:44:06;;;;;;;4.35;2.60;;;;;;;;;;5078078;28;20036;-79
2021/08/30 11:46:42;;;;;;;2.22;1.33;;;;;;;;;;5077996;28;20437;-78
2021/08/30 11:49:09;;;;;;;11.85;3.00;;;;;;;;;;5077684;28;20094;-79
2021/08/30 11:51:43;;;;;;;8.70;3.25;;;;;;;;;;5059632;28;20078;-79
2021/08/30 11:54:13;;;;;;;14.07;2.97;;;;;;;;;;5077792;28;20032;-80
2021/08/30 11:56:39;;;;;;;5.15;2.70;;;;;;;;;;5077671;28;20028;-78
2021/08/30 11:59:05;;;;;;;5.25;2.22;;;;;;;;;;5078015;28;20024;-79
2021/08/30 12:01:38;;;;;;;2.78;1.55;;;;;;;;;;5077646;28;20017;-80
2021/08/30 12:04:24;;;;;;;5.55;2.55;;;;;;;;;;5077654;28;20031;-78
2021/08/30 12:06:53;;;;;;;3.17;1.55;;;;;;;;;;5077674;28;20036;-78
2021/08/30 12:09:20;;;;;;;3.25;1.42;;;;;;;;;;5059872;28;20035;-78
2021/08/30 12:11:48;;;;;;;3.55;2.05;;;;;;;;;;5077590;28;20411;-78
2021/08/30 12:14:14;;;;;;;2.45;2.05;;;;;;;;;;5077480;28;20024;-78
2021/08/30 12:16:42;;;;;;;2.92;2.05;;;;;;;;;;5077433;28;20055;-78
2021/08/30 12:19:09;;;;;;;8.73;5.18;;;;;;;;;;5059370;28;20029;-78
2021/08/30 12:21:37;;;;;;;6.47;2.28;;;;;;;;;;5077454;28;20322;-78
2021/08/30 12:24:03;;;;;;;2.05;1.40;;;;;;;;;;5077220;28;20049;-79
2021/08/30 12:26:29;;;;;;;1.50;1.08;;;;;;;;;;5077358;28;20025;-79
2021/08/30 12:28:56;;;;;;;2.75;1.30;;;;;;;;;;5077220;28;20469;-78
2021/08/30 12:31:33;;;;;;;2.28;1.23;;;;;;;;;;5077275;28;20059;-79
2021/08/30 12:34:05;;;;;;;1.85;1.30;;;;;;;;;;5077076;28;20031;-79
2021/08/30 12:36:31;;;;;;;5.85;2.22;;;;;;;;;;5077217;28;20090;-79
2021/08/30 12:38:57;;;;;;;3.40;1.80;;;;;;;;;;5077328;28;20027;-79
2021/08/30 12:41:23;;;;;;;1.88;1.30;;;;;;;;;;5076908;28;20116;-79
2021/08/30 12:43:50;;;;;;;2.35;1.27;;;;;;;;;;5076954;28;20103;-79
2021/08/30 12:46:16;;;;;;;1.52;1.20;;;;;;;;;;5077201;28;20024;-79
2021/08/30 12:48:42;;;;;;;1.50;1.20;;;;;;;;;;5059300;28;20429;-80
2021/08/30 12:51:10;;;;;;;1.30;1.20;;;;;;;;;;5077004;28;20028;-78
2021/08/30 12:53:36;;;;;;;1.30;1.20;;;;;;;;;;5059211;28;20032;-80
2021/08/30 12:56:02;;;;;;;6.18;1.30;;;;;;;;;;5076648;28;20025;-80
2021/08/30 12:58:29;;;;;;;1.40;1.30;;;;;;;;;;5059087;28;20021;-79
2021/08/30 13:00:55;;;;;;;5.10;1.45;;;;;;;;;;5057854;28;20037;-80
2021/08/30 13:03:21;;;;;;;1.42;1.33;;;;;;;;;;5059130;28;20142;-80
2021/08/30 13:05:47;;;;;;;2.75;1.50;;;;;;;;;;5058710;28;20154;-80
2021/08/30 13:08:15;;;;;;;2.75;1.30;;;;;;;;;;5076778;28;20342;-80
2021/08/30 13:10:42;;;;;;;2.53;1.30;;;;;;;;;;5076878;28;20032;-79
2021/08/30 13:13:09;;;;;;;2.22;1.23;;;;;;;;;;5076645;28;20063;-79
2021/08/30 13:15:36;;;;;;;2.03;1.40;;;;;;;;;;5076771;28;20078;-79
2021/08/30 13:18:02;;;;;;;1.30;1.20;;;;;;;;;;5058889;28;20403;-79
2021/08/30 13:20:28;;;;;;;1.23;1.13;;;;;;;;;;5076602;28;20418;-80
2021/08/30 13:22:55;;;;;;;1.10;1.00;;;;;;;;;;5057992;28;20036;-79
2021/08/30 13:25:22;;;;;;;1.65;1.15;;;;;;;;;;5076927;28;20049;-79
2021/08/30 13:27:53;;;;;;;1.85;1.30;;;;;;;;;;5059049;28;20021;-79
2021/08/30 13:30:21;;;;;;;3.80;1.17;;;;;;;;;;5058890;28;20054;-79
2021/08/30 13:32:47;;;;;;;1.77;1.13;;;;;;;;;;5076558;28;20024;-79
2021/08/30 13:35:13;;;;;;;4.18;1.42;;;;;;;;;;5076711;28;20035;-79
2021/08/30 13:37:40;;;;;;;3.05;2.08;;;;;;;;;;5076567;28;20035;-79
2021/08/30 13:40:07;;;;;;;1.50;1.30;;;;;;;;;;5076519;28;20021;-79
2021/08/30 13:42:34;;;;;;;4.25;1.15;;;;;;;;;;5076510;28;20027;-79
2021/08/30 13:45:00;;;;;;;1.20;1.10;;;;;;;;;;5076615;28;20020;-79
2021/08/30 13:47:26;;;;;;;1.73;1.45;;;;;;;;;;5076414;28;20029;-79
2021/08/30 13:49:55;;;;;;;1.40;1.10;;;;;;;;;;5076360;28;20043;-80
2021/08/30 13:52:21;;;;;;;1.55;1.30;;;;;;;;;;5058427;28;20115;-79
2021/08/30 13:54:47;;;;;;;1.33;1.23;;;;;;;;;;5076398;28;20055;-79
2021/08/30 13:57:13;;;;;;;1.45;1.10;;;;;;;;;;5076290;28;20020;-80
2021/08/30 13:59:39;;;;;;;3.40;1.30;;;;;;;;;;5076493;28;20047;-79
2021/08/30 14:02:05;;;;;;;1.40;1.30;;;;;;;;;;5058647;28;20410;-79
2021/08/30 14:04:32;;;;;;;1.67;1.30;;;;;;;;;;5076294;28;20021;-79
2021/08/30 14:06:58;;;;;;;2.08;1.20;;;;;;;;;;5076323;28;20070;-80
2021/08/30 14:09:25;;;;;;;3.47;1.40;;;;;;;;;;5076297;28;20024;-79
2021/08/30 14:11:51;;;;;;;1.67;1.33;;;;;;;;;;5076584;28;20040;-79
2021/08/30 14:14:17;;;;;;;3.28;1.42;;;;;;;;;;5061524;28;20478;-80
2021/08/30 14:16:43;;;;;;;1.40;1.30;;;;;;;;;;5061543;28;20445;-79
2021/08/30 14:19:10;;;;;;;2.80;1.23;;;;;;;;;;5079604;28;20016;-80
2021/08/30 14:21:39;;;;;;;1.85;1.20;;;;;;;;;;5079660;28;20024;-79
2021/08/30 14:24:06;;;;;;;1.33;1.10;;;;;;;;;;5079492;28;20056;-79
2021/08/30 14:26:32;;;;;;;2.25;1.33;;;;;;;;;;5061976;28;20056;-80
2021/08/30 14:28:58;;;;;;;4.80;2.10;;;;;;;;;;5079576;28;20031;-80
2021/08/30 14:31:25;;;;;;;2.20;1.58;;;;;;;;;;5079454;28;20035;-80
2021/08/30 14:33:53;;;;;;;2.88;1.42;;;;;;;;;;5079440;28;20025;-79
2021/08/30 14:36:19;;;;;;;8.02;2.20;;;;;;;;;;5061693;28;20036;-79
2021/08/30 14:38:45;;;;;;;2.88;1.40;;;;;;;;;;5079626;28;20012;-79
2021/08/30 14:41:11;;;;;;;3.40;1.20;;;;;;;;;;5079268;28;20021;-80
2021/08/30 14:43:37;;;;;;;3.00;1.30;;;;;;;;;;5079362;28;20056;-79
2021/08/30 14:46:04;;;;;;;3.70;1.45;;;;;;;;;;5079207;28;20406;-79